createdAt,value
2023-03-22T00:02:08.239Z,17.60
2023-03-22T00:07:29.872Z,15.77
2023-03-22T00:12:51.524Z,17.80
2023-03-22T00:18:14.666Z,14.97
2023-03-22T00:23:36.825Z,15.77
2023-03-22T00:28:58.573Z,19.67
2023-03-22T00:34:20.553Z,16.37
2023-03-22T00:39:42.689Z,14.03
2023-03-22T00:45:05.969Z,13.63
2023-03-22T00:50:27.713Z,13.50
2023-03-22T00:55:49.344Z,12.50
2023-03-22T01:01:14.927Z,11.07
2023-03-22T01:06:36.808Z,11.77
2023-03-22T01:11:59.658Z,13.67
2023-03-22T01:17:21.399Z,13.47
2023-03-22T01:22:43.293Z,11.70
2023-03-22T01:28:06.934Z,11.40
2023-03-22T01:33:28.688Z,13.07
2023-03-22T01:38:50.142Z,14.77
2023-03-22T01:44:19.501Z,12.53
2023-03-22T01:49:43.477Z,10.87
2023-03-22T01:55:09.567Z,9.87
2023-03-22T02:00:42.309Z,14.93
2023-03-22T02:06:18.163Z,10.47
2023-03-22T02:12:10.528Z,10.37
2023-03-22T02:17:59.755Z,10.90
2023-03-22T02:23:52.770Z,11.13
2023-03-22T02:29:26.497Z,12.27
2023-03-22T02:35:28.608Z,16.93
2023-03-22T02:41:06.481Z,11.97
2023-03-22T02:46:43.975Z,14.40
2023-03-22T02:52:11.154Z,13.07
2023-03-22T02:57:56.425Z,13.87
2023-03-22T03:03:20.216Z,10.33
2023-03-22T03:08:43.025Z,10.87
2023-03-22T03:14:05.458Z,9.60
2023-03-22T03:19:37.550Z,10.30
2023-03-22T03:25:22.294Z,10.77
2023-03-22T03:30:57.169Z,10.33
2023-03-22T03:36:21.274Z,14.93
2023-03-22T03:41:46.367Z,10.03
2023-03-22T03:47:09.554Z,18.57
2023-03-22T03:52:31.731Z,13.07
2023-03-22T03:57:53.191Z,11.67
2023-03-22T04:03:18.078Z,12.07
2023-03-22T04:08:58.184Z,13.07
2023-03-22T04:14:26.825Z,12.57
2023-03-22T04:19:53.689Z,13.27
2023-03-22T04:25:18.280Z,13.37
2023-03-22T04:30:52.749Z,13.80
2023-03-22T04:36:39.665Z,10.53
2023-03-22T04:42:17.355Z,17.30
2023-03-22T04:47:40.911Z,12.33
2023-03-22T04:53:03.496Z,13.57
2023-03-22T04:58:27.371Z,13.03
2023-03-22T05:03:49.029Z,14.70
2023-03-22T05:09:16.388Z,17.87
2023-03-22T05:14:38.442Z,17.00
2023-03-22T05:20:09.495Z,17.63
2023-03-22T05:25:34.372Z,14.77
2023-03-22T05:30:57.295Z,17.93
2023-03-22T05:36:36.644Z,17.67
2023-03-22T05:42:13.102Z,11.60
2023-03-22T05:47:36.302Z,14.50
2023-03-22T05:53:07.143Z,14.90
2023-03-22T05:58:48.099Z,15.13
2023-03-22T06:04:12.636Z,13.77
2023-03-22T06:09:50.261Z,16.03
2023-03-22T06:15:18.867Z,14.33
2023-03-22T06:21:01.182Z,14.27
2023-03-22T06:26:22.927Z,15.53
2023-03-22T06:31:44.503Z,19.63
2023-03-22T06:37:06.625Z,18.03
2023-03-22T06:42:32.602Z,17.83
2023-03-22T06:48:01.520Z,16.43
2023-03-22T06:53:50.800Z,16.10
2023-03-22T06:59:13.317Z,17.03
2023-03-22T07:04:35.086Z,18.47
2023-03-22T07:09:57.238Z,18.27
2023-03-22T07:15:24.886Z,19.30
2023-03-22T07:20:58.187Z,19.77
2023-03-22T07:26:19.933Z,18.40
2023-03-22T07:31:45.954Z,17.13
2023-03-22T07:37:15.879Z,17.83
2023-03-22T07:42:39.190Z,15.00
2023-03-22T07:48:24.314Z,14.97
2023-03-22T07:54:07.146Z,19.23
2023-03-22T07:59:29.582Z,16.20
2023-03-22T08:04:55.765Z,14.70
2023-03-22T08:10:28.450Z,12.23
2023-03-22T08:15:50.837Z,12.87
2023-03-22T08:21:14.342Z,17.13
2023-03-22T08:26:37.964Z,13.60
2023-03-22T08:32:08.629Z,10.80
2023-03-22T08:37:30.300Z,11.00
2023-03-22T08:42:52.461Z,9.53
2023-03-22T08:48:14.120Z,10.57
2023-03-22T08:54:08.438Z,10.90
2023-03-22T08:59:48.155Z,13.63
2023-03-22T09:05:29.976Z,9.00
2023-03-22T09:10:52.294Z,9.67
2023-03-22T09:16:17.376Z,8.07
2023-03-22T09:21:41.178Z,8.53
2023-03-22T09:27:10.350Z,7.40
2023-03-22T09:32:32.265Z,5.53
2023-03-22T09:38:09.757Z,5.47
2023-03-22T09:43:42.868Z,5.90
2023-03-22T09:49:28.832Z,6.43
2023-03-22T09:54:56.048Z,7.67
2023-03-22T10:00:43.337Z,6.80
2023-03-22T10:06:36.173Z,9.67
2023-03-22T10:12:33.789Z,6.37
2023-03-22T10:18:03.746Z,6.73
2023-03-22T10:23:33.184Z,5.70
2023-03-22T10:29:06.172Z,5.30
2023-03-22T10:34:31.309Z,6.13
2023-03-22T10:39:58.868Z,5.37
2023-03-22T10:45:21.526Z,6.53
2023-03-22T10:50:46.042Z,6.87
2023-03-22T10:56:14.114Z,4.53
2023-03-22T11:01:44.474Z,5.87
2023-03-22T11:07:06.362Z,5.97
2023-03-22T11:12:28.338Z,4.60
2023-03-22T11:17:50.787Z,5.63
2023-03-22T11:23:17.984Z,6.23
2023-03-22T11:28:51.328Z,6.77
2023-03-22T11:34:19.079Z,8.43
2023-03-22T11:39:49.731Z,8.70
2023-03-22T11:45:17.116Z,7.43
2023-03-22T11:50:40.757Z,4.80
2023-03-22T11:56:07.536Z,4.87
2023-03-22T12:01:45.282Z,5.07
2023-03-22T12:07:17.065Z,6.80
2023-03-22T12:13:01.763Z,6.87
2023-03-22T12:18:46.673Z,5.10
2023-03-22T12:24:27.225Z,4.00
2023-03-22T12:30:08.674Z,5.97
2023-03-22T12:35:43.574Z,6.40
2023-03-22T12:41:14.177Z,6.57
2023-03-22T12:46:53.797Z,6.80
2023-03-22T12:52:44.817Z,9.90
2023-03-22T12:58:09.232Z,6.80
2023-03-22T13:03:39.605Z,6.20
2023-03-22T13:09:18.262Z,9.27
2023-03-22T13:14:59.283Z,4.20
2023-03-22T13:20:27.909Z,3.77
2023-03-22T13:26:15.032Z,2.13
2023-03-22T13:31:51.942Z,2.97
2023-03-22T13:37:35.187Z,5.33
2023-03-22T13:43:29.972Z,2.87
2023-03-22T13:49:27.018Z,3.30
2023-03-22T13:54:52.749Z,1.97
2023-03-22T14:00:34.499Z,3.70
2023-03-22T14:06:04.522Z,3.53
2023-03-22T14:11:38.337Z,3.90
2023-03-22T14:17:13.944Z,2.70
